Bg Felixstowe — V2BR7 — position and weather

sailwx.info

Track history (hours):
 
Tides and Currents Weather Stations Pressure Air Temp Water Temp Dewpoint Dewpoint Depression Visibility Wind Speed Wind Dir Waves Ship Positions

Bg Felixstowe

Last reported at 2014-Sep-29 08:33 UTC. Time now 2014-Oct-02 08:34 UTC.
Position N 25°31' W 080°00'.

Length 139 m; draft 7.1 m.

Type: Ship. MMSI: 304906000.

Date/timePositionNaut miles runAvg speedWind from/ knotsBaromVisibWave heightAir tempDewpointWater temp
2014-Sep-29 08:33N 25°31' W 080°00'1413.6
2014-Sep-29 07:33N 25°44' W 080°04'6 5.9
2014-Sep-29 06:30N 25°46' W 080°10'0 0.0
2014-Sep-29 04:20N 25°46' W 080°10'0 0.0
2014-Sep-29 03:26N 25°46' W 080°10'0 0.0
2014-Sep-29 00:22N 25°46' W 080°10'0 0.0
2014-Sep-28 21:32N 25°46' W 080°10'0 0.0
2014-Sep-28 20:26N 25°46' W 080°10'0 0.0
2014-Sep-28 19:16N 25°46' W 080°10'0 0.0
2014-Sep-28 17:03N 25°46' W 080°10'0 0.0
2014-Sep-28 16:12N 25°46' W 080°10'0 0.0
2014-Sep-28 15:27N 25°46' W 080°10'0 0.0
2014-Sep-28 14:33N 25°46' W 080°10'5 4.6
2014-Sep-28 13:33N 25°46' W 080°05'1313.0
2014-Sep-28 12:33N 25°34' W 080°01'  
2014-Sep-22 03:04N 25°22' W 080°00'714.5
2014-Sep-22 02:33N 25°29' W 080°00'1414.2
2014-Sep-22 01:33N 25°43' W 080°03'7 4.9
2014-Sep-22 00:09N 25°46' W 080°10'0 0.0
2014-Sep-21 21:13N 25°46' W 080°10'0 0.0
2014-Sep-21 19:19N 25°46' W 080°10'0 0.0
2014-Sep-21 18:30N 25°46' W 080°10'0 0.0
2014-Sep-21 14:26N 25°46' W 080°10'0 0.0
2014-Sep-21 13:32N 25°46' W 080°10'1 0.2
2014-Sep-21 10:33N 25°46' W 080°10'9 8.8
2014-Sep-21 09:33N 25°40' W 080°02'1514.6
2014-Sep-21 08:33N 25°26' W 080°01'1716.1
2014-Sep-21 07:29N 25°09' W 080°06'  
Track history (hours):
 
Tides and Currents Weather Stations Pressure Air Temp Water Temp Dewpoint Dewpoint Depression Visibility Wind Speed Wind Dir Waves Ship Positions

Bg Felixstowe

Last reported at 2014-Sep-29 08:33 UTC. Time now 2014-Oct-02 08:34 UTC.
Position N 25°31' W 080°00'.

Length 139 m; draft 7.1 m.

Type: Ship. MMSI: 304906000.

Date/timePositionNaut miles runAvg speedWind from/ knotsBaromVisibWave heightAir tempDewpointWater temp
2014-Sep-29 08:33N 25°31' W 080°00'1413.6
2014-Sep-29 07:33N 25°44' W 080°04'6 5.9
2014-Sep-29 06:30N 25°46' W 080°10'0 0.0
2014-Sep-29 04:20N 25°46' W 080°10'0 0.0
2014-Sep-29 03:26N 25°46' W 080°10'0 0.0
2014-Sep-29 00:22N 25°46' W 080°10'0 0.0
2014-Sep-28 21:32N 25°46' W 080°10'0 0.0
2014-Sep-28 20:26N 25°46' W 080°10'0 0.0
2014-Sep-28 19:16N 25°46' W 080°10'0 0.0
2014-Sep-28 17:03N 25°46' W 080°10'0 0.0
2014-Sep-28 16:12N 25°46' W 080°10'0 0.0
2014-Sep-28 15:27N 25°46' W 080°10'0 0.0
2014-Sep-28 14:33N 25°46' W 080°10'5 4.6
2014-Sep-28 13:33N 25°46' W 080°05'1313.0
2014-Sep-28 12:33N 25°34' W 080°01'  
2014-Sep-22 03:04N 25°22' W 080°00'714.5
2014-Sep-22 02:33N 25°29' W 080°00'1414.2
2014-Sep-22 01:33N 25°43' W 080°03'7 4.9
2014-Sep-22 00:09N 25°46' W 080°10'0 0.0
2014-Sep-21 21:13N 25°46' W 080°10'0 0.0
2014-Sep-21 19:19N 25°46' W 080°10'0 0.0
2014-Sep-21 18:30N 25°46' W 080°10'0 0.0
2014-Sep-21 14:26N 25°46' W 080°10'0 0.0
2014-Sep-21 13:32N 25°46' W 080°10'1 0.2
2014-Sep-21 10:33N 25°46' W 080°10'9 8.8
2014-Sep-21 09:33N 25°40' W 080°02'1514.6
2014-Sep-21 08:33N 25°26' W 080°01'1716.1
2014-Sep-21 07:29N 25°09' W 080°06'  

Dump ship's entire track history